sensor_id;sensor_type;location;lat;lon;timestamp;pressure;altitude;pressure_sealevel;temperature;humidity
74103;BME280;62853;46.166;3.640;2023-03-14T00:00:11;98814.97;;;10.87;100.00
74103;BME280;62853;46.166;3.640;2023-03-14T00:02:42;98814.28;;;10.85;100.00
74103;BME280;62853;46.166;3.640;2023-03-14T00:05:08;98835.66;;;10.92;100.00
74103;BME280;62853;46.166;3.640;2023-03-14T00:07:38;98812.63;;;10.74;100.00
74103;BME280;62853;46.166;3.640;2023-03-14T00:10:09;98834.41;;;10.86;100.00
74103;BME280;62853;46.166;3.640;2023-03-14T00:12:45;98829.22;;;10.75;100.00
74103;BME280;62853;46.166;3.640;2023-03-14T00:15:13;98817.84;;;10.65;100.00
74103;BME280;62853;46.166;3.640;2023-03-14T00:17:43;98831.31;;;10.71;100.00
74103;BME280;62853;46.166;3.640;2023-03-14T00:20:09;98838.50;;;10.69;100.00
74103;BME280;62853;46.166;3.640;2023-03-14T00:22:47;98839.91;;;10.73;100.00
74103;BME280;62853;46.166;3.640;2023-03-14T00:25:15;98833.38;;;10.68;100.00
74103;BME280;62853;46.166;3.640;2023-03-14T00:27:44;98845.97;;;10.64;100.00
74103;BME280;62853;46.166;3.640;2023-03-14T00:30:12;98835.81;;;10.50;100.00
74103;BME280;62853;46.166;3.640;2023-03-14T00:32:37;98839.13;;;10.52;100.00
74103;BME280;62853;46.166;3.640;2023-03-14T00:35:08;98846.59;;;10.47;100.00
74103;BME280;62853;46.166;3.640;2023-03-14T00:37:36;98847.41;;;10.47;100.00
74103;BME280;62853;46.166;3.640;2023-03-14T00:40:01;98863.63;;;10.42;100.00
74103;BME280;62853;46.166;3.640;2023-03-14T00:42:33;98861.13;;;10.41;100.00
74103;BME280;62853;46.166;3.640;2023-03-14T00:44:58;98849.31;;;10.35;100.00
74103;BME280;62853;46.166;3.640;2023-03-14T00:47:24;98863.88;;;10.39;100.00
74103;BME280;62853;46.166;3.640;2023-03-14T00:49:49;98854.84;;;10.32;100.00
74103;BME280;62853;46.166;3.640;2023-03-14T00:52:18;98867.47;;;10.38;100.00
74103;BME280;62853;46.166;3.640;2023-03-14T00:54:45;98866.06;;;10.34;100.00
74103;BME280;62853;46.166;3.640;2023-03-14T00:57:14;98870.09;;;10.38;100.00
74103;BME280;62853;46.166;3.640;2023-03-14T00:59:42;98864.19;;;10.25;100.00
74103;BME280;62853;46.166;3.640;2023-03-14T01:02:20;98873.06;;;10.24;100.00
74103;BME280;62853;46.166;3.640;2023-03-14T01:04:49;98860.97;;;10.21;100.00
74103;BME280;62853;46.166;3.640;2023-03-14T01:07:15;98864.59;;;10.20;100.00
74103;BME280;62853;46.166;3.640;2023-03-14T01:10:10;98860.41;;;10.18;100.00
74103;BME280;62853;46.166;3.640;2023-03-14T01:12:36;98866.94;;;10.23;100.00
74103;BME280;62853;46.166;3.640;2023-03-14T01:15:01;98876.00;;;10.31;100.00
74103;BME280;62853;46.166;3.640;2023-03-14T01:17:29;98875.06;;;10.32;100.00
74103;BME280;62853;46.166;3.640;2023-03-14T01:19:55;98852.66;;;10.16;100.00
74103;BME280;62853;46.166;3.640;2023-03-14T01:22:20;98870.66;;;10.32;100.00
74103;BME280;62853;46.166;3.640;2023-03-14T01:24:46;98857.72;;;10.29;100.00
74103;BME280;62853;46.166;3.640;2023-03-14T01:27:12;98851.75;;;10.27;100.00
74103;BME280;62853;46.166;3.640;2023-03-14T01:29:38;98844.00;;;10.26;100.00
74103;BME280;62853;46.166;3.640;2023-03-14T01:32:03;98834.84;;;10.30;100.00
74103;BME280;62853;46.166;3.640;2023-03-14T01:34:31;98829.47;;;10.31;100.00
74103;BME280;62853;46.166;3.640;2023-03-14T01:36:57;98822.94;;;10.26;100.00
74103;BME280;62853;46.166;3.640;2023-03-14T01:39:22;98806.59;;;10.22;100.00
74103;BME280;62853;46.166;3.640;2023-03-14T01:41:48;98821.91;;;10.38;100.00
74103;BME280;62853;46.166;3.640;2023-03-14T01:44:13;98810.94;;;10.33;100.00
74103;BME280;62853;46.166;3.640;2023-03-14T01:46:49;98813.88;;;10.39;100.00
74103;BME280;62853;46.166;3.640;2023-03-14T01:52:02;98803.28;;;10.30;100.00
74103;BME280;62853;46.166;3.640;2023-03-14T01:54:42;98800.91;;;10.27;100.00
74103;BME280;62853;46.166;3.640;2023-03-14T01:59:52;98803.41;;;10.28;100.00
74103;BME280;62853;46.166;3.640;2023-03-14T02:02:19;98794.81;;;10.26;100.00
74103;BME280;62853;46.166;3.640;2023-03-14T02:04:50;98798.28;;;10.27;100.00
74103;BME280;62853;46.166;3.640;2023-03-14T02:07:35;98798.84;;;10.30;100.00
74103;BME280;62853;46.166;3.640;2023-03-14T02:10:13;98790.50;;;10.25;100.00
74103;BME280;62853;46.166;3.640;2023-03-14T02:13:04;98801.03;;;10.25;100.00
74103;BME280;62853;46.166;3.640;2023-03-14T02:15:30;98788.56;;;10.17;100.00
74103;BME280;62853;46.166;3.640;2023-03-14T02:17:56;98797.31;;;10.28;100.00
74103;BME280;62853;46.166;3.640;2023-03-14T02:20:34;98791.25;;;10.27;100.00
74103;BME280;62853;46.166;3.640;2023-03-14T02:23:02;98791.38;;;10.26;100.00
74103;BME280;62853;46.166;3.640;2023-03-14T02:25:38;98784.00;;;10.19;100.00
74103;BME280;62853;46.166;3.640;2023-03-14T02:28:11;98792.84;;;10.18;100.00
74103;BME280;62853;46.166;3.640;2023-03-14T02:30:38;98775.66;;;10.14;100.00
74103;BME280;62853;46.166;3.640;2023-03-14T02:40:46;98779.38;;;10.12;100.00
74103;BME280;62853;46.166;3.640;2023-03-14T02:43:12;98769.59;;;10.14;100.00
74103;BME280;62853;46.166;3.640;2023-03-14T02:45:45;98761.13;;;10.10;100.00
74103;BME280;62853;46.166;3.640;2023-03-14T02:48:17;98761.25;;;10.09;100.00
74103;BME280;62853;46.166;3.640;2023-03-14T02:50:44;98776.09;;;10.19;100.00
74103;BME280;62853;46.166;3.640;2023-03-14T02:53:16;98764.19;;;10.15;100.00
74103;BME280;62853;46.166;3.640;2023-03-14T02:55:49;98763.16;;;10.06;100.00
74103;BME280;62853;46.166;3.640;2023-03-14T02:58:20;98755.94;;;9.99;100.00
74103;BME280;62853;46.166;3.640;2023-03-14T03:00:51;98768.00;;;10.01;100.00
74103;BME280;62853;46.166;3.640;2023-03-14T03:03:16;98768.56;;;10.05;100.00
74103;BME280;62853;46.166;3.640;2023-03-14T03:05:55;98777.03;;;10.09;100.00
74103;BME280;62853;46.166;3.640;2023-03-14T03:08:22;98768.00;;;10.01;100.00
74103;BME280;62853;46.166;3.640;2023-03-14T03:10:48;98774.94;;;10.02;100.00
74103;BME280;62853;46.166;3.640;2023-03-14T03:13:19;98775.75;;;10.03;100.00
74103;BME280;62853;46.166;3.640;2023-03-14T03:15:52;98780.19;;;10.02;100.00
74103;BME280;62853;46.166;3.640;2023-03-14T03:18:18;98778.13;;;10.06;100.00
74103;BME280;62853;46.166;3.640;2023-03-14T03:21:02;98775.50;;;10.06;100.00
74103;BME280;62853;46.166;3.640;2023-03-14T03:23:29;98769.41;;;10.05;100.00
74103;BME280;62853;46.166;3.640;2023-03-14T03:25:59;98763.16;;;9.97;100.00
74103;BME280;62853;46.166;3.640;2023-03-14T03:28:25;98772.00;;;9.96;100.00
74103;BME280;62853;46.166;3.640;2023-03-14T03:30:50;98764.22;;;9.94;100.00
74103;BME280;62853;46.166;3.640;2023-03-14T03:33:16;98768.41;;;9.97;100.00
74103;BME280;62853;46.166;3.640;2023-03-14T03:35:49;98763.16;;;9.97;100.00
74103;BME280;62853;46.166;3.640;2023-03-14T03:38:15;98776.31;;;10.06;100.00
74103;BME280;62853;46.166;3.640;2023-03-14T03:40:41;98754.94;;;9.90;100.00
74103;BME280;62853;46.166;3.640;2023-03-14T03:43:07;98759.47;;;9.88;100.00
74103;BME280;62853;46.166;3.640;2023-03-14T03:45:32;98764.47;;;9.91;100.00
74103;BME280;62853;46.166;3.640;2023-03-14T03:48:00;98752.56;;;9.87;100.00
74103;BME280;62853;46.166;3.640;2023-03-14T03:50:29;98744.88;;;9.74;100.00
74103;BME280;62853;46.166;3.640;2023-03-14T03:52:54;98747.66;;;9.73;100.00
74103;BME280;62853;46.166;3.640;2023-03-14T03:55:20;98754.84;;;9.71;100.00
74103;BME280;62853;46.166;3.640;2023-03-14T03:57:52;98748.81;;;9.59;100.00
74103;BME280;62853;46.166;3.640;2023-03-14T04:00:18;98760.72;;;9.63;100.00
74103;BME280;62853;46.166;3.640;2023-03-14T04:02:43;98768.56;;;9.53;100.00
74103;BME280;62853;46.166;3.640;2023-03-14T04:05:09;98754.59;;;9.53;100.00
74103;BME280;62853;46.166;3.640;2023-03-14T04:07:35;98746.56;;;9.54;100.00
74103;BME280;62853;46.166;3.640;2023-03-14T04:10:00;98755.00;;;9.48;100.00
74103;BME280;62853;46.166;3.640;2023-03-14T04:12:26;98751.13;;;9.52;100.00
74103;BME280;62853;46.166;3.640;2023-03-14T04:14:54;98759.00;;;9.52;100.00
74103;BME280;62853;46.166;3.640;2023-03-14T04:17:19;98756.63;;;9.49;100.00
74103;BME280;62853;46.166;3.640;2023-03-14T04:19:45;98737.34;;;9.39;100.00
74103;BME280;62853;46.166;3.640;2023-03-14T04:22:10;98760.06;;;9.40;100.00
74103;BME280;62853;46.166;3.640;2023-03-14T04:24:36;98759.59;;;9.35;100.00
74103;BME280;62853;46.166;3.640;2023-03-14T04:27:01;98762.31;;;9.44;100.00
74103;BME280;62853;46.166;3.640;2023-03-14T04:29:26;98748.97;;;9.36;100.00
74103;BME280;62853;46.166;3.640;2023-03-14T04:31:52;98722.38;;;9.29;100.00
74103;BME280;62853;46.166;3.640;2023-03-14T04:34:17;98745.78;;;9.33;100.00
74103;BME280;62853;46.166;3.640;2023-03-14T04:36:43;98751.59;;;9.36;100.00
74103;BME280;62853;46.166;3.640;2023-03-14T04:39:08;98742.28;;;9.32;100.00
74103;BME280;62853;46.166;3.640;2023-03-14T04:41:34;98730.06;;;9.21;100.00
74103;BME280;62853;46.166;3.640;2023-03-14T04:43:59;98731.22;;;9.28;100.00
74103;BME280;62853;46.166;3.640;2023-03-14T04:46:25;98729.41;;;9.29;100.00
74103;BME280;62853;46.166;3.640;2023-03-14T04:48:50;98729.06;;;9.22;100.00
74103;BME280;62853;46.166;3.640;2023-03-14T04:51:15;98721.84;;;9.15;100.00
74103;BME280;62853;46.166;3.640;2023-03-14T04:53:41;98736.97;;;9.22;100.00
74103;BME280;62853;46.166;3.640;2023-03-14T04:56:07;98746.63;;;9.22;100.00
74103;BME280;62853;46.166;3.640;2023-03-14T04:58:32;98739.00;;;9.19;100.00
74103;BME280;62853;46.166;3.640;2023-03-14T05:01:03;98735.81;;;9.15;100.00
74103;BME280;62853;46.166;3.640;2023-03-14T05:03:30;98727.81;;;9.17;100.00
74103;BME280;62853;46.166;3.640;2023-03-14T05:05:58;98742.88;;;9.15;100.00
74103;BME280;62853;46.166;3.640;2023-03-14T05:08:24;98742.63;;;9.18;100.00
74103;BME280;62853;46.166;3.640;2023-03-14T05:11:01;98744.91;;;9.11;100.00
74103;BME280;62853;46.166;3.640;2023-03-14T05:13:31;98750.09;;;9.22;100.00
74103;BME280;62853;46.166;3.640;2023-03-14T05:16:09;98729.28;;;9.09;100.00
74103;BME280;62853;46.166;3.640;2023-03-14T05:18:38;98720.69;;;9.07;100.00
74103;BME280;62853;46.166;3.640;2023-03-14T05:21:06;98735.69;;;9.17;100.00
74103;BME280;62853;46.166;3.640;2023-03-14T05:23:34;98738.50;;;9.25;100.00
74103;BME280;62853;46.166;3.640;2023-03-14T05:25:59;98742.50;;;9.19;100.00
74103;BME280;62853;46.166;3.640;2023-03-14T05:28:25;98729.06;;;9.22;100.00
74103;BME280;62853;46.166;3.640;2023-03-14T05:30:50;98721.97;;;9.13;100.00
74103;BME280;62853;46.166;3.640;2023-03-14T05:33:18;98718.25;;;9.16;100.00
74103;BME280;62853;46.166;3.640;2023-03-14T05:35:43;98737.59;;;9.15;100.00
74103;BME280;62853;46.166;3.640;2023-03-14T05:38:09;98732.34;;;9.15;100.00
74103;BME280;62853;46.166;3.640;2023-03-14T05:40:34;98713.97;;;9.15;100.00
74103;BME280;62853;46.166;3.640;2023-03-14T05:43:00;98712.16;;;9.15;100.00
74103;BME280;62853;46.166;3.640;2023-03-14T05:45:26;98736.72;;;9.25;100.00
74103;BME280;62853;46.166;3.640;2023-03-14T05:47:52;98709.66;;;9.13;100.00
74103;BME280;62853;46.166;3.640;2023-03-14T05:50:17;98731.69;;;9.22;100.00
74103;BME280;62853;46.166;3.640;2023-03-14T05:52:43;98726.72;;;9.19;100.00
74103;BME280;62853;46.166;3.640;2023-03-14T05:55:10;98721.19;;;9.22;100.00
74103;BME280;62853;46.166;3.640;2023-03-14T05:57:36;98716.94;;;9.21;100.00
74103;BME280;62853;46.166;3.640;2023-03-14T06:00:02;98724.94;;;9.20;100.00
74103;BME280;62853;46.166;3.640;2023-03-14T06:02:30;98708.84;;;9.13;100.00
74103;BME280;62853;46.166;3.640;2023-03-14T06:04:55;98731.00;;;9.20;100.00
74103;BME280;62853;46.166;3.640;2023-03-14T06:07:20;98715.28;;;9.09;100.00
74103;BME280;62853;46.166;3.640;2023-03-14T06:09:46;98709.09;;;9.10;100.00
74103;BME280;62853;46.166;3.640;2023-03-14T06:12:11;98707.03;;;9.13;100.00
74103;BME280;62853;46.166;3.640;2023-03-14T06:14:44;98726.28;;;9.14;100.00
74103;BME280;62853;46.166;3.640;2023-03-14T06:17:09;98727.19;;;9.24;100.00
74103;BME280;62853;46.166;3.640;2023-03-14T06:19:35;98709.53;;;9.15;100.00
74103;BME280;62853;46.166;3.640;2023-03-14T06:22:03;98710.25;;;9.17;100.00
74103;BME280;62853;46.166;3.640;2023-03-14T06:24:28;98715.94;;;9.22;100.00
74103;BME280;62853;46.166;3.640;2023-03-14T06:26:53;98703.34;;;9.16;100.00
74103;BME280;62853;46.166;3.640;2023-03-14T06:29:19;98707.94;;;9.24;100.00
74103;BME280;62853;46.166;3.640;2023-03-14T06:31:44;98717.50;;;9.25;100.00
74103;BME280;62853;46.166;3.640;2023-03-14T06:34:10;98720.91;;;9.37;100.00
74103;BME280;62853;46.166;3.640;2023-03-14T06:36:35;98722.69;;;9.36;100.00
74103;BME280;62853;46.166;3.640;2023-03-14T06:39:00;98714.50;;;9.29;100.00
74103;BME280;62853;46.166;3.640;2023-03-14T06:41:28;98733.34;;;9.35;100.00
74103;BME280;62853;46.166;3.640;2023-03-14T06:43:54;98721.34;;;9.42;100.00
74103;BME280;62853;46.166;3.640;2023-03-14T06:46:19;98736.47;;;9.49;100.00
74103;BME280;62853;46.166;3.640;2023-03-14T06:48:45;98729.41;;;9.50;100.00
74103;BME280;62853;46.166;3.640;2023-03-14T06:51:10;98727.41;;;9.63;100.00
74103;BME280;62853;46.166;3.640;2023-03-14T06:53:35;98723.34;;;9.80;100.00
74103;BME280;62853;46.166;3.640;2023-03-14T06:56:07;98727.03;;;9.99;100.00
74103;BME280;62853;46.166;3.640;2023-03-14T06:58:33;98732.16;;;10.00;100.00
74103;BME280;62853;46.166;3.640;2023-03-14T07:00:58;98736.72;;;9.98;100.00
74103;BME280;62853;46.166;3.640;2023-03-14T07:03:24;98734.59;;;9.92;100.00
74103;BME280;62853;46.166;3.640;2023-03-14T07:05:50;98738.75;;;9.85;100.00
74103;BME280;62853;46.166;3.640;2023-03-14T07:08:15;98738.00;;;9.83;100.00
74103;BME280;62853;46.166;3.640;2023-03-14T07:10:41;98747.69;;;9.82;100.00
74103;BME280;62853;46.166;3.640;2023-03-14T07:13:08;98747.41;;;9.76;100.00
74103;BME280;62853;46.166;3.640;2023-03-14T07:15:34;98752.53;;;9.77;100.00
74103;BME280;62853;46.166;3.640;2023-03-14T07:17:59;98750.72;;;9.78;100.00
74103;BME280;62853;46.166;3.640;2023-03-14T07:20:25;98758.34;;;9.81;100.00
74103;BME280;62853;46.166;3.640;2023-03-14T07:22:50;98770.97;;;9.87;100.00
74103;BME280;62853;46.166;3.640;2023-03-14T07:25:16;98764.97;;;9.75;100.00
74103;BME280;62853;46.166;3.640;2023-03-14T07:27:53;98782.13;;;9.79;100.00
74103;BME280;62853;46.166;3.640;2023-03-14T07:30:19;98782.69;;;9.73;100.00
74103;BME280;62853;46.166;3.640;2023-03-14T07:32:47;98797.41;;;9.64;100.00
74103;BME280;62853;46.166;3.640;2023-03-14T07:35:13;98815.63;;;9.56;100.00
74103;BME280;62853;46.166;3.640;2023-03-14T07:37:38;98841.38;;;9.41;100.00
74103;BME280;62853;46.166;3.640;2023-03-14T07:40:04;98874.06;;;9.16;100.00
74103;BME280;62853;46.166;3.640;2023-03-14T07:42:32;98886.38;;;8.93;100.00
74103;BME280;62853;46.166;3.640;2023-03-14T07:44:57;98894.78;;;8.64;100.00
74103;BME280;62853;46.166;3.640;2023-03-14T07:47:22;98915.63;;;8.54;100.00
74103;BME280;62853;46.166;3.640;2023-03-14T07:49:48;98927.16;;;8.41;100.00
74103;BME280;62853;46.166;3.640;2023-03-14T07:52:13;98934.06;;;8.30;100.00
74103;BME280;62853;46.166;3.640;2023-03-14T07:54:39;98937.47;;;8.08;100.00
74103;BME280;62853;46.166;3.640;2023-03-14T07:57:04;98970.97;;;8.05;100.00
74103;BME280;62853;46.166;3.640;2023-03-14T07:59:30;98961.94;;;7.85;100.00
74103;BME280;62853;46.166;3.640;2023-03-14T08:01:58;98964.28;;;7.76;100.00
74103;BME280;62853;46.166;3.640;2023-03-14T08:04:23;98982.75;;;7.75;100.00
74103;BME280;62853;46.166;3.640;2023-03-14T08:06:49;98991.53;;;7.74;100.00
74103;BME280;62853;46.166;3.640;2023-03-14T08:09:14;98996.50;;;7.66;100.00
74103;BME280;62853;46.166;3.640;2023-03-14T08:11:47;99000.31;;;7.61;100.00
74103;BME280;62853;46.166;3.640;2023-03-14T08:14:13;99018.44;;;7.64;100.00
74103;BME280;62853;46.166;3.640;2023-03-14T08:16:39;99012.91;;;7.56;100.00
74103;BME280;62853;46.166;3.640;2023-03-14T08:19:06;99024.22;;;7.57;100.00
74103;BME280;62853;46.166;3.640;2023-03-14T08:21:43;99039.94;;;7.57;100.00
74103;BME280;62853;46.166;3.640;2023-03-14T08:24:09;99045.78;;;7.60;100.00
74103;BME280;62853;46.166;3.640;2023-03-14T08:26:34;99066.59;;;7.75;100.00
74103;BME280;62853;46.166;3.640;2023-03-14T08:29:00;99058.97;;;7.72;100.00
74103;BME280;62853;46.166;3.640;2023-03-14T08:31:25;99079.38;;;7.79;100.00
74103;BME280;62853;46.166;3.640;2023-03-14T08:33:51;99094.34;;;7.90;100.00
74103;BME280;62853;46.166;3.640;2023-03-14T08:36:17;99096.75;;;7.93;100.00
74103;BME280;62853;46.166;3.640;2023-03-14T08:38:43;99107.75;;;7.86;100.00
74103;BME280;62853;46.166;3.640;2023-03-14T08:41:08;99126.34;;;7.82;100.00
74103;BME280;62853;46.166;3.640;2023-03-14T08:43:34;99133.16;;;7.72;100.00
74103;BME280;62853;46.166;3.640;2023-03-14T08:46:00;99132.06;;;7.51;100.00
74103;BME280;62853;46.166;3.640;2023-03-14T08:48:26;99136.56;;;7.49;100.00
74103;BME280;62853;46.166;3.640;2023-03-14T08:50:55;99163.81;;;7.46;100.00
74103;BME280;62853;46.166;3.640;2023-03-14T08:53:23;99160.03;;;7.50;100.00
74103;BME280;62853;46.166;3.640;2023-03-14T08:55:53;99182.44;;;7.67;100.00
74103;BME280;62853;46.166;3.640;2023-03-14T08:58:19;99172.41;;;7.61;100.00
74103;BME280;62853;46.166;3.640;2023-03-14T09:00:44;99178.88;;;7.55;100.00
74103;BME280;62853;46.166;3.640;2023-03-14T09:03:10;99199.00;;;7.55;100.00
74103;BME280;62853;46.166;3.640;2023-03-14T09:05:35;99186.66;;;7.44;100.00
74103;BME280;62853;46.166;3.640;2023-03-14T09:08:01;99204.03;;;7.45;100.00
74103;BME280;62853;46.166;3.640;2023-03-14T09:10:26;99211.47;;;7.38;100.00
74103;BME280;62853;46.166;3.640;2023-03-14T09:12:54;99219.44;;;7.37;100.00
74103;BME280;62853;46.166;3.640;2023-03-14T09:15:19;99224.66;;;7.37;100.00
74103;BME280;62853;46.166;3.640;2023-03-14T09:17:48;99241.97;;;7.39;100.00
74103;BME280;62853;46.166;3.640;2023-03-14T09:20:14;99249.94;;;7.51;100.00
74103;BME280;62853;46.166;3.640;2023-03-14T09:22:44;99240.19;;;7.53;100.00
74103;BME280;62853;46.166;3.640;2023-03-14T09:25:10;99264.50;;;7.55;100.00
74103;BME280;62853;46.166;3.640;2023-03-14T09:27:36;99274.88;;;7.56;100.00
74103;BME280;62853;46.166;3.640;2023-03-14T09:30:02;99280.44;;;7.77;100.00
74103;BME280;62853;46.166;3.640;2023-03-14T09:32:28;99284.03;;;7.89;100.00
74103;BME280;62853;46.166;3.640;2023-03-14T09:35:02;99289.03;;;8.05;100.00
74103;BME280;62853;46.166;3.640;2023-03-14T09:37:28;99287.78;;;8.11;100.00
74103;BME280;62853;46.166;3.640;2023-03-14T09:39:53;99302.66;;;8.10;100.00
74103;BME280;62853;46.166;3.640;2023-03-14T09:42:22;99309.19;;;8.05;100.00
74103;BME280;62853;46.166;3.640;2023-03-14T09:45:04;99317.03;;;7.92;100.00
74103;BME280;62853;46.166;3.640;2023-03-14T09:47:34;99344.50;;;7.73;100.00
74103;BME280;62853;46.166;3.640;2023-03-14T09:50:01;99363.88;;;7.58;100.00
74103;BME280;62853;46.166;3.640;2023-03-14T09:52:35;99382.25;;;7.43;100.00
74103;BME280;62853;46.166;3.640;2023-03-14T09:55:19;99394.25;;;7.20;100.00
74103;BME280;62853;46.166;3.640;2023-03-14T09:57:48;99406.88;;;7.14;100.00
74103;BME280;62853;46.166;3.640;2023-03-14T10:00:21;99434.72;;;7.15;100.00
74103;BME280;62853;46.166;3.640;2023-03-14T10:05:41;99454.56;;;7.04;100.00
74103;BME280;62853;46.166;3.640;2023-03-14T10:08:10;99474.41;;;6.94;100.00
74103;BME280;62853;46.166;3.640;2023-03-14T10:10:36;99492.19;;;6.89;100.00
74103;BME280;62853;46.166;3.640;2023-03-14T10:16:00;99513.69;;;6.80;100.00
74103;BME280;62853;46.166;3.640;2023-03-14T10:18:28;99510.13;;;6.81;100.00
74103;BME280;62853;46.166;3.640;2023-03-14T10:23:43;99530.41;;;6.92;100.00
74103;BME280;62853;46.166;3.640;2023-03-14T10:26:18;99545.25;;;7.20;100.00
74103;BME280;62853;46.166;3.640;2023-03-14T10:28:52;99574.13;;;7.61;100.00
74103;BME280;62853;46.166;3.640;2023-03-14T10:31:18;99572.16;;;7.92;100.00
74103;BME280;62853;46.166;3.640;2023-03-14T10:34:00;99567.56;;;7.96;100.00
74103;BME280;62853;46.166;3.640;2023-03-14T10:36:31;99594.22;;;8.02;100.00
74103;BME280;62853;46.166;3.640;2023-03-14T10:39:23;99594.66;;;7.96;100.00
74103;BME280;62853;46.166;3.640;2023-03-14T10:41:54;99608.34;;;8.14;100.00
74103;BME280;62853;46.166;3.640;2023-03-14T10:44:22;99599.28;;;8.06;100.00
74103;BME280;62853;46.166;3.640;2023-03-14T10:47:02;99623.53;;;8.09;100.00
74103;BME280;62853;46.166;3.640;2023-03-14T10:49:33;99631.44;;;7.95;100.00
74103;BME280;62853;46.166;3.640;2023-03-14T10:52:25;99640.19;;;7.81;100.00
74103;BME280;62853;46.166;3.640;2023-03-14T10:54:57;99668.88;;;7.97;100.00
74103;BME280;62853;46.166;3.640;2023-03-14T10:57:23;99657.84;;;8.06;100.00
74103;BME280;62853;46.166;3.640;2023-03-14T10:59:48;99661.66;;;8.15;100.00
74103;BME280;62853;46.166;3.640;2023-03-14T11:02:34;99682.19;;;8.08;100.00
74103;BME280;62853;46.166;3.640;2023-03-14T11:05:30;99701.88;;;8.01;100.00
74103;BME280;62853;46.166;3.640;2023-03-14T11:08:06;99700.66;;;7.78;100.00
74103;BME280;62853;46.166;3.640;2023-03-14T11:10:34;99710.66;;;7.57;100.00
74103;BME280;62853;46.166;3.640;2023-03-14T11:13:18;99749.22;;;7.55;100.00
74103;BME280;62853;46.166;3.640;2023-03-14T11:24:34;99777.34;;;7.37;100.00
74103;BME280;62853;46.166;3.640;2023-03-14T11:27:12;99781.84;;;7.35;100.00
74103;BME280;62853;46.166;3.640;2023-03-14T11:29:44;99789.56;;;7.52;100.00
74103;BME280;62853;46.166;3.640;2023-03-14T11:34:59;99789.69;;;7.79;100.00
74103;BME280;62853;46.166;3.640;2023-03-14T11:37:40;99793.44;;;7.90;100.00
74103;BME280;62853;46.166;3.640;2023-03-14T11:40:26;99805.41;;;7.94;100.00
74103;BME280;62853;46.166;3.640;2023-03-14T11:43:18;99818.69;;;7.91;100.00
74103;BME280;62853;46.166;3.640;2023-03-14T11:45:47;99822.63;;;7.69;100.00
74103;BME280;62853;46.166;3.640;2023-03-14T11:51:06;99873.22;;;7.55;100.00
74103;BME280;62853;46.166;3.640;2023-03-14T11:53:46;99870.19;;;7.17;100.00
74103;BME280;62853;46.166;3.640;2023-03-14T11:59:27;99902.84;;;6.78;100.00
74103;BME280;62853;46.166;3.640;2023-03-14T12:07:05;99896.09;;;6.74;100.00
74103;BME280;62853;46.166;3.640;2023-03-14T12:09:48;99907.16;;;6.95;100.00
74103;BME280;62853;46.166;3.640;2023-03-14T12:12:26;99905.06;;;7.17;100.00
74103;BME280;62853;46.166;3.640;2023-03-14T12:15:04;99920.16;;;7.44;100.00
74103;BME280;62853;46.166;3.640;2023-03-14T12:17:42;99932.72;;;7.53;100.00
74103;BME280;62853;46.166;3.640;2023-03-14T12:20:25;99952.63;;;7.72;100.00
74103;BME280;62853;46.166;3.640;2023-03-14T12:23:05;99947.13;;;7.76;100.00
74103;BME280;62853;46.166;3.640;2023-03-14T12:25:41;99940.59;;;7.83;100.00
74103;BME280;62853;46.166;3.640;2023-03-14T12:28:32;99947.50;;;8.00;100.00
74103;BME280;62853;46.166;3.640;2023-03-14T12:44:48;99955.97;;;8.20;100.00
74103;BME280;62853;46.166;3.640;2023-03-14T12:49:51;99953.09;;;8.39;100.00
74103;BME280;62853;46.166;3.640;2023-03-14T12:52:30;99971.38;;;8.41;100.00
74103;BME280;62853;46.166;3.640;2023-03-14T12:57:45;99977.13;;;8.17;100.00
74103;BME280;62853;46.166;3.640;2023-03-14T13:00:18;99979.00;;;8.15;100.00
74103;BME280;62853;46.166;3.640;2023-03-14T13:02:46;99992.44;;;8.25;100.00
74103;BME280;62853;46.166;3.640;2023-03-14T13:05:20;100004.47;;;8.43;100.00
74103;BME280;62853;46.166;3.640;2023-03-14T13:13:03;100016.78;;;8.27;100.00
74103;BME280;62853;46.166;3.640;2023-03-14T13:15:42;100006.31;;;8.27;100.00
74103;BME280;62853;46.166;3.640;2023-03-14T13:18:16;100003.59;;;8.28;100.00
74103;BME280;62853;46.166;3.640;2023-03-14T13:20:53;100025.84;;;8.21;100.00
74103;BME280;62853;46.166;3.640;2023-03-14T13:23:25;100016.13;;;7.93;100.00
74103;BME280;62853;46.166;3.640;2023-03-14T13:25:51;100037.47;;;8.17;100.00
74103;BME280;62853;46.166;3.640;2023-03-14T13:28:17;100038.75;;;8.10;100.00
74103;BME280;62853;46.166;3.640;2023-03-14T13:30:45;100039.59;;;8.10;100.00
74103;BME280;62853;46.166;3.640;2023-03-14T13:33:29;100035.16;;;8.27;100.00
74103;BME280;62853;46.166;3.640;2023-03-14T13:36:00;100051.09;;;8.38;100.00
74103;BME280;62853;46.166;3.640;2023-03-14T13:38:28;100057.47;;;8.34;100.00
74103;BME280;62853;46.166;3.640;2023-03-14T13:40:56;100063.16;;;8.26;100.00
74103;BME280;62853;46.166;3.640;2023-03-14T13:48:29;100096.19;;;8.14;95.67
74103;BME280;62853;46.166;3.640;2023-03-14T13:51:02;100097.72;;;8.18;100.00
74103;BME280;62853;46.166;3.640;2023-03-14T13:53:28;100087.97;;;8.20;100.00
74103;BME280;62853;46.166;3.640;2023-03-14T13:55:54;100117.06;;;8.32;100.00
74103;BME280;62853;46.166;3.640;2023-03-14T13:58:26;100107.75;;;8.26;100.00
74103;BME280;62853;46.166;3.640;2023-03-14T14:01:14;100133.06;;;8.27;100.00
74103;BME280;62853;46.166;3.640;2023-03-14T14:03:42;100124.94;;;8.16;100.00
74103;BME280;62853;46.166;3.640;2023-03-14T14:06:29;100142.97;;;8.22;100.00
74103;BME280;62853;46.166;3.640;2023-03-14T14:08:57;100138.34;;;8.11;100.00
74103;BME280;62853;46.166;3.640;2023-03-14T14:17:05;100178.16;;;8.02;100.00
74103;BME280;62853;46.166;3.640;2023-03-14T14:19:34;100187.91;;;8.00;100.00
74103;BME280;62853;46.166;3.640;2023-03-14T14:22:00;100194.06;;;7.99;100.00
74103;BME280;62853;46.166;3.640;2023-03-14T14:24:31;100210.16;;;7.93;93.44
74103;BME280;62853;46.166;3.640;2023-03-14T14:27:08;100212.94;;;7.90;100.00